createdAt,value
2019-03-27T00:01:44.348Z,10.83
2019-03-27T00:04:15.878Z,10.10
2019-03-27T00:06:47.488Z,11.80
2019-03-27T00:09:19.170Z,9.73
2019-03-27T00:11:50.579Z,8.80
2019-03-27T00:14:22.021Z,10.23
2019-03-27T00:16:53.616Z,10.93
2019-03-27T00:19:25.047Z,6.93
2019-03-27T00:21:56.644Z,11.73
2019-03-27T00:24:28.200Z,6.43
2019-03-27T00:26:59.833Z,7.40
2019-03-27T00:29:31.423Z,9.43
2019-03-27T00:32:02.950Z,11.77
2019-03-27T00:34:34.416Z,12.23
2019-03-27T00:37:06.038Z,9.80
2019-03-27T00:39:38.123Z,12.00
2019-03-27T00:42:09.674Z,10.47
2019-03-27T00:44:41.287Z,12.90
2019-03-27T00:47:12.812Z,9.53
2019-03-27T00:49:44.594Z,11.23
2019-03-27T00:52:16.084Z,13.23
2019-03-27T00:54:47.572Z,12.90
2019-03-27T00:57:19.212Z,13.53
2019-03-27T00:59:51.392Z,13.23
2019-03-27T01:02:22.824Z,11.10
2019-03-27T01:04:54.338Z,11.77
2019-03-27T01:07:26.213Z,12.57
2019-03-27T01:09:57.712Z,10.63
2019-03-27T01:12:29.185Z,12.00
2019-03-27T01:15:00.661Z,11.40
2019-03-27T01:17:32.241Z,14.10
2019-03-27T01:20:03.894Z,11.97
2019-03-27T01:22:35.437Z,10.23
2019-03-27T01:25:08.205Z,9.40
2019-03-27T01:27:39.725Z,9.77
2019-03-27T01:30:12.546Z,7.17
2019-03-27T01:32:44.104Z,15.07
2019-03-27T01:35:16.647Z,12.70
2019-03-27T01:37:52.495Z,10.10
2019-03-27T01:40:24.911Z,10.77
2019-03-27T01:42:56.423Z,14.23
2019-03-27T01:45:28.031Z,13.80
2019-03-27T01:47:59.883Z,10.93
2019-03-27T01:50:33.068Z,8.03
2019-03-27T01:53:04.604Z,14.73
2019-03-27T01:55:42.353Z,12.60
2019-03-27T01:58:14.029Z,9.17
2019-03-27T02:00:46.525Z,14.03
2019-03-27T02:03:18.381Z,12.90
2019-03-27T02:05:50.003Z,14.10
2019-03-27T02:08:21.677Z,9.33
2019-03-27T02:10:53.670Z,9.30
2019-03-27T02:13:28.158Z,8.60
2019-03-27T02:16:06.649Z,10.13
2019-03-27T02:18:34.360Z,11.60
2019-03-27T02:21:06.379Z,10.13
2019-03-27T02:23:38.919Z,7.83
2019-03-27T02:26:10.434Z,6.90
2019-03-27T02:28:41.951Z,9.67
2019-03-27T02:31:13.484Z,9.30
2019-03-27T02:33:45.033Z,10.50
2019-03-27T02:36:16.568Z,11.37
2019-03-27T02:38:49.002Z,9.30
2019-03-27T02:41:20.526Z,10.00
2019-03-27T02:43:52.436Z,9.37
2019-03-27T02:46:25.929Z,10.67
2019-03-27T02:48:57.435Z,11.83
2019-03-27T02:51:29.648Z,9.00
2019-03-27T02:54:21.250Z,13.17
2019-03-27T02:56:59.073Z,9.00
2019-03-27T02:59:31.494Z,7.63
2019-03-27T03:02:04.143Z,10.43
2019-03-27T03:04:35.817Z,8.33
2019-03-27T03:07:07.421Z,13.77
2019-03-27T03:09:38.962Z,11.33
2019-03-27T03:12:10.584Z,10.53
2019-03-27T03:14:42.618Z,11.03
2019-03-27T03:17:14.188Z,11.53
2019-03-27T03:19:45.745Z,8.80
2019-03-27T03:22:17.275Z,10.53
2019-03-27T03:24:48.925Z,9.97
2019-03-27T03:27:20.513Z,11.03
2019-03-27T03:29:52.016Z,14.57
2019-03-27T03:32:25.443Z,14.03
2019-03-27T03:34:56.989Z,9.47
2019-03-27T03:37:29.714Z,13.93
2019-03-27T03:40:01.674Z,13.53
2019-03-27T03:42:33.198Z,12.30
2019-03-27T03:45:05.213Z,15.50
2019-03-27T03:47:37.618Z,14.67
2019-03-27T03:50:16.831Z,15.97
2019-03-27T03:52:48.751Z,16.57
2019-03-27T03:55:20.382Z,12.97
2019-03-27T03:57:53.141Z,14.77
2019-03-27T04:00:27.761Z,21.80
2019-03-27T04:03:01.452Z,18.87
2019-03-27T04:05:33.109Z,15.37
2019-03-27T04:08:04.635Z,18.10
2019-03-27T04:10:36.620Z,19.63
2019-03-27T04:13:09.079Z,15.97
2019-03-27T04:15:41.658Z,12.93
2019-03-27T04:18:13.320Z,10.63
2019-03-27T04:20:51.377Z,12.50
2019-03-27T04:23:23.056Z,13.50
2019-03-27T04:26:09.153Z,14.73
2019-03-27T04:28:29.725Z,17.03
2019-03-27T04:31:01.221Z,9.70
2019-03-27T04:33:34.486Z,14.37
2019-03-27T04:36:06.293Z,13.70
2019-03-27T04:38:38.727Z,13.73
2019-03-27T04:41:10.258Z,14.17
2019-03-27T04:43:42.654Z,15.33
2019-03-27T04:46:14.314Z,15.60
2019-03-27T04:48:45.950Z,14.20
2019-03-27T04:51:18.447Z,10.87
2019-03-27T04:53:51.030Z,19.17
2019-03-27T04:56:25.144Z,12.77
2019-03-27T04:58:57.475Z,13.83
2019-03-27T05:01:29.185Z,15.27
2019-03-27T05:04:02.275Z,13.27
2019-03-27T05:06:35.191Z,12.87
2019-03-27T05:09:08.031Z,16.43
2019-03-27T05:11:40.457Z,13.13
2019-03-27T05:14:32.573Z,17.37
2019-03-27T05:17:05.477Z,13.80
2019-03-27T05:19:37.128Z,11.07
2019-03-27T05:22:09.396Z,12.57
2019-03-27T05:24:43.046Z,16.90
2019-03-27T05:27:15.418Z,8.50
2019-03-27T05:29:47.167Z,13.73
2019-03-27T05:32:19.770Z,14.27
2019-03-27T05:34:51.572Z,11.20
2019-03-27T05:37:23.359Z,17.33
2019-03-27T05:39:55.031Z,10.03
2019-03-27T05:42:28.932Z,13.80
2019-03-27T05:45:00.906Z,11.60
2019-03-27T05:47:34.418Z,12.43
2019-03-27T05:50:06.951Z,11.80
2019-03-27T05:52:40.099Z,15.80
2019-03-27T05:55:11.779Z,11.30
2019-03-27T05:57:44.189Z,9.47
2019-03-27T06:00:17.552Z,15.93
2019-03-27T06:02:49.365Z,11.77
2019-03-27T06:05:21.058Z,12.67
2019-03-27T06:07:52.646Z,14.10
2019-03-27T06:10:24.550Z,13.00
2019-03-27T06:12:57.822Z,12.23
2019-03-27T06:15:30.192Z,12.60
2019-03-27T06:18:12.582Z,26.43
2019-03-27T06:20:35.637Z,13.50
2019-03-27T06:23:07.697Z,11.17
2019-03-27T06:25:39.246Z,14.10
2019-03-27T06:28:11.784Z,14.30
2019-03-27T06:30:43.871Z,14.03
2019-03-27T06:33:56.121Z,13.20
2019-03-27T06:36:28.606Z,11.00
2019-03-27T06:39:00.690Z,14.33
2019-03-27T06:41:34.269Z,17.63
2019-03-27T06:44:06.371Z,14.63
2019-03-27T06:46:40.236Z,15.87
2019-03-27T06:49:12.341Z,15.87
2019-03-27T06:52:08.223Z,14.37
2019-03-27T06:54:41.636Z,10.50
2019-03-27T06:57:15.236Z,16.47
2019-03-27T06:59:53.586Z,9.30
2019-03-27T07:02:28.860Z,17.03
2019-03-27T07:04:59.421Z,11.03
2019-03-27T07:07:37.379Z,12.07
2019-03-27T07:10:09.611Z,12.63
2019-03-27T07:12:41.183Z,12.30
2019-03-27T07:15:13.146Z,10.13
2019-03-27T07:17:50.844Z,11.50
2019-03-27T07:20:22.521Z,10.20
2019-03-27T07:22:57.656Z,9.97
2019-03-27T07:25:30.098Z,10.03
2019-03-27T07:28:03.520Z,8.73
2019-03-27T07:30:35.032Z,7.80
2019-03-27T07:33:06.592Z,9.47
2019-03-27T07:35:38.980Z,12.20
2019-03-27T07:38:11.016Z,8.13
2019-03-27T07:40:43.660Z,10.63
2019-03-27T07:43:15.234Z,11.53
2019-03-27T07:45:46.813Z,11.50
2019-03-27T07:48:18.309Z,15.03
2019-03-27T07:50:50.927Z,10.27
2019-03-27T07:53:22.782Z,11.00
2019-03-27T07:55:54.327Z,11.27
2019-03-27T07:58:25.825Z,14.70
2019-03-27T08:00:57.433Z,12.17
2019-03-27T08:03:28.993Z,12.80
2019-03-27T08:06:00.538Z,9.57
2019-03-27T08:08:32.022Z,8.57
2019-03-27T08:11:03.753Z,11.33
2019-03-27T08:13:35.273Z,12.60
2019-03-27T08:16:07.803Z,11.10
2019-03-27T08:18:39.415Z,7.60
2019-03-27T08:21:11.357Z,14.17
2019-03-27T08:23:43.916Z,9.47
2019-03-27T08:26:16.017Z,12.17
2019-03-27T08:28:47.606Z,10.53
2019-03-27T08:31:19.147Z,10.57
2019-03-27T08:33:50.748Z,7.87
2019-03-27T08:36:28.603Z,19.43
2019-03-27T08:39:03.035Z,9.77
2019-03-27T08:41:35.161Z,8.90
2019-03-27T08:44:06.994Z,9.47
2019-03-27T08:46:38.889Z,11.70
2019-03-27T08:58:36.594Z,8.93
2019-03-27T09:06:36.168Z,13.17
2019-03-27T09:09:39.660Z,15.80
2019-03-27T09:12:26.573Z,12.00
2019-03-27T09:14:58.731Z,9.33
2019-03-27T09:17:30.715Z,14.03
2019-03-27T09:20:02.448Z,10.47
2019-03-27T09:22:34.406Z,10.77
2019-03-27T09:25:15.315Z,14.37
2019-03-27T09:27:49.447Z,11.70
2019-03-27T09:30:25.264Z,11.43
2019-03-27T09:32:57.243Z,12.43
2019-03-27T09:35:32.414Z,12.43
2019-03-27T09:38:07.936Z,9.93
2019-03-27T09:40:40.378Z,14.00
2019-03-27T09:43:13.490Z,9.97
2019-03-27T09:45:46.164Z,10.97
2019-03-27T09:48:18.097Z,10.70
2019-03-27T09:50:49.997Z,11.97
2019-03-27T09:53:21.809Z,12.13
2019-03-27T09:55:55.813Z,10.40
2019-03-27T09:58:28.898Z,12.37
2019-03-27T10:01:04.408Z,10.80
2019-03-27T10:03:36.393Z,10.57
2019-03-27T10:06:10.446Z,8.47
2019-03-27T10:08:43.595Z,11.47
2019-03-27T10:11:23.836Z,14.33
2019-03-27T10:13:55.866Z,10.23
2019-03-27T10:16:32.694Z,13.43
2019-03-27T10:19:04.520Z,9.63
2019-03-27T10:21:36.200Z,14.47
2019-03-27T10:24:08.071Z,13.67
2019-03-27T10:26:42.588Z,10.60
2019-03-27T10:29:19.355Z,10.73
2019-03-27T10:31:54.432Z,12.37
2019-03-27T10:34:29.782Z,12.77
2019-03-27T10:37:01.439Z,10.07
2019-03-27T10:39:33.853Z,11.60
2019-03-27T10:42:06.842Z,10.47
2019-03-27T10:44:38.473Z,12.87
2019-03-27T10:47:16.970Z,10.80
2019-03-27T10:49:49.534Z,13.00
2019-03-27T10:52:21.260Z,16.40
2019-03-27T10:54:56.967Z,13.13
2019-03-27T10:57:30.803Z,11.77
2019-03-27T11:00:02.772Z,13.90
2019-03-27T11:02:35.059Z,14.30
2019-03-27T11:05:07.555Z,12.77
2019-03-27T11:07:39.400Z,12.77
2019-03-27T11:10:11.695Z,13.20
2019-03-27T11:12:44.495Z,11.97
2019-03-27T11:16:48.122Z,18.03
2019-03-27T11:19:26.838Z,11.80
2019-03-27T11:21:58.695Z,13.90
2019-03-27T11:24:30.321Z,10.07
2019-03-27T11:27:02.282Z,10.27
2019-03-27T11:29:34.300Z,13.43
2019-03-27T11:32:08.605Z,14.17
2019-03-27T11:34:40.215Z,11.93
2019-03-27T11:37:11.825Z,12.30
2019-03-27T11:39:43.511Z,20.17
2019-03-27T11:42:21.042Z,12.93
2019-03-27T11:44:52.671Z,13.20
2019-03-27T11:47:24.505Z,13.27
2019-03-27T11:49:56.053Z,8.57
2019-03-27T11:52:29.625Z,13.00
2019-03-27T11:55:00.979Z,18.50
2019-03-27T11:57:32.583Z,16.57
2019-03-27T12:00:08.671Z,13.37
2019-03-27T12:02:42.048Z,13.93
2019-03-27T12:05:15.774Z,11.37
2019-03-27T12:07:48.811Z,14.93
2019-03-27T12:10:21.437Z,11.37
2019-03-27T12:12:56.546Z,18.17
2019-03-27T12:15:51.921Z,15.37
2019-03-27T12:18:26.768Z,10.80
2019-03-27T12:21:00.724Z,14.37
2019-03-27T12:23:32.380Z,9.30
2019-03-27T12:26:04.256Z,10.93
2019-03-27T12:28:36.973Z,17.47
2019-03-27T12:31:15.339Z,11.10
2019-03-27T12:33:46.968Z,13.23
2019-03-27T12:36:18.705Z,20.47
2019-03-27T12:38:50.346Z,11.00
2019-03-27T12:41:22.103Z,10.87
2019-03-27T12:43:53.779Z,10.40
2019-03-27T12:46:25.665Z,13.93
2019-03-27T12:48:57.291Z,13.37
2019-03-27T12:51:29.256Z,9.53
2019-03-27T12:54:01.154Z,7.13
2019-03-27T12:56:32.746Z,11.10
2019-03-27T12:59:04.375Z,9.70
2019-03-27T13:01:37.623Z,7.93
2019-03-27T13:04:09.427Z,8.53
2019-03-27T13:06:41.076Z,7.20
2019-03-27T13:09:12.838Z,9.83
2019-03-27T13:11:44.499Z,9.00
2019-03-27T13:14:16.365Z,8.57
2019-03-27T13:16:48.069Z,11.47
2019-03-27T13:19:20.887Z,10.13
2019-03-27T13:21:55.327Z,8.93
2019-03-27T13:24:27.329Z,8.07
2019-03-27T13:26:58.891Z,7.27
2019-03-27T13:29:30.622Z,7.37
2019-03-27T13:32:02.245Z,7.90
2019-03-27T13:34:34.026Z,6.83
2019-03-27T13:37:06.071Z,8.50
2019-03-27T13:39:37.847Z,7.33
2019-03-27T13:42:09.393Z,7.67
2019-03-27T13:44:42.328Z,7.30
2019-03-27T13:47:15.251Z,6.93
2019-03-27T13:49:47.373Z,7.20
2019-03-27T13:52:20.180Z,8.17
2019-03-27T13:54:51.850Z,8.77
2019-03-27T13:57:24.090Z,6.53
2019-03-27T13:59:56.162Z,6.93
2019-03-27T14:02:32.868Z,10.43
2019-03-27T14:05:04.646Z,6.17
2019-03-27T14:07:36.481Z,6.07
2019-03-27T14:10:10.118Z,8.97
2019-03-27T14:12:41.919Z,8.83
2019-03-27T14:15:16.009Z,8.33
2019-03-27T14:17:47.878Z,7.70
2019-03-27T14:20:19.949Z,5.33
2019-03-27T14:22:52.336Z,8.37
2019-03-27T14:25:33.254Z,6.70
2019-03-27T14:28:04.966Z,7.43
2019-03-27T14:31:02.619Z,11.90
2019-03-27T14:33:34.744Z,11.47
2019-03-27T14:36:06.261Z,8.67
2019-03-27T14:38:39.314Z,11.70
2019-03-27T14:41:10.898Z,9.47
2019-03-27T14:43:42.991Z,10.57
2019-03-27T14:46:14.696Z,11.67
2019-03-27T14:48:46.159Z,13.77
2019-03-27T14:51:17.631Z,11.13
2019-03-27T14:53:49.671Z,15.07
2019-03-27T14:56:21.476Z,10.87
2019-03-27T14:58:52.995Z,13.20
2019-03-27T15:01:24.628Z,13.47
2019-03-27T15:03:56.309Z,12.93
2019-03-27T15:06:27.845Z,16.17
2019-03-27T15:09:00.406Z,9.70
2019-03-27T15:11:31.890Z,13.73
2019-03-27T15:14:03.423Z,11.43
2019-03-27T15:16:35.009Z,12.90
2019-03-27T15:19:06.611Z,9.60
2019-03-27T15:21:38.159Z,11.67
2019-03-27T15:24:09.871Z,14.83
2019-03-27T15:26:41.754Z,13.77
2019-03-27T15:29:13.722Z,17.00
2019-03-27T15:31:45.316Z,13.57
2019-03-27T15:34:16.905Z,9.77
2019-03-27T15:36:48.519Z,10.87
2019-03-27T15:39:20.065Z,10.53
2019-03-27T15:41:51.695Z,9.00
2019-03-27T15:44:23.304Z,10.03
2019-03-27T15:46:54.965Z,8.13
2019-03-27T15:49:27.035Z,10.57
2019-03-27T15:51:58.822Z,9.77
2019-03-27T15:54:30.413Z,13.20
2019-03-27T15:57:01.986Z,11.73
2019-03-27T15:59:33.904Z,14.30
2019-03-27T16:02:05.694Z,9.10
2019-03-27T16:04:38.911Z,13.87
2019-03-27T16:07:10.783Z,13.40
2019-03-27T16:09:42.490Z,15.10
2019-03-27T16:12:14.154Z,16.23
2019-03-27T16:14:45.690Z,22.73
2019-03-27T16:17:17.380Z,18.90
2019-03-27T16:19:48.947Z,16.97
2019-03-27T16:22:20.775Z,16.07
2019-03-27T16:24:52.396Z,17.10
2019-03-27T16:27:25.991Z,17.40
2019-03-27T16:29:58.507Z,16.77
2019-03-27T16:32:30.580Z,22.37
2019-03-27T16:35:03.398Z,16.27
2019-03-27T16:37:35.366Z,19.60
2019-03-27T16:40:08.145Z,15.37
2019-03-27T16:42:39.928Z,14.23
2019-03-27T16:45:11.927Z,18.67
2019-03-27T16:47:43.320Z,18.00
2019-03-27T16:50:15.941Z,17.40
2019-03-27T16:52:47.697Z,22.53
2019-03-27T16:55:19.739Z,22.00
2019-03-27T16:57:51.550Z,18.63
2019-03-27T17:00:24.404Z,18.23
2019-03-27T17:02:56.418Z,20.40
2019-03-27T17:05:27.994Z,19.00
2019-03-27T17:07:59.567Z,20.13
2019-03-27T17:10:31.077Z,22.07
2019-03-27T17:13:02.628Z,20.33
2019-03-27T17:15:34.047Z,22.07
2019-03-27T17:18:05.882Z,24.37
2019-03-27T17:20:37.351Z,26.37
2019-03-27T17:23:18.168Z,20.07
2019-03-27T17:25:42.203Z,22.40
2019-03-27T17:28:13.956Z,22.87
2019-03-27T17:30:45.631Z,18.77
2019-03-27T17:33:18.106Z,14.60
2019-03-27T17:35:49.804Z,19.53
2019-03-27T17:38:21.441Z,13.73
2019-03-27T17:40:54.107Z,16.23
2019-03-27T17:43:26.031Z,16.20
2019-03-27T17:45:58.015Z,19.00
2019-03-27T17:48:29.695Z,15.87
2019-03-27T17:51:01.278Z,17.67
2019-03-27T17:53:36.126Z,13.77
2019-03-27T17:56:11.603Z,12.70
2019-03-27T17:58:43.543Z,14.27
2019-03-27T18:01:15.975Z,14.37
2019-03-27T18:03:50.714Z,16.53
2019-03-27T18:06:24.982Z,14.17
2019-03-27T18:08:58.037Z,19.47
2019-03-27T18:11:29.711Z,14.00
2019-03-27T18:14:04.173Z,13.67
2019-03-27T18:16:39.108Z,16.93
2019-03-27T18:19:13.106Z,12.63
2019-03-27T18:21:50.602Z,14.40
2019-03-27T18:24:22.183Z,12.97
2019-03-27T18:26:53.823Z,11.97
2019-03-27T18:29:26.671Z,13.27
2019-03-27T18:32:00.400Z,10.83
2019-03-27T18:34:34.499Z,19.23
2019-03-27T18:37:09.365Z,12.90
2019-03-27T18:39:42.394Z,11.83
2019-03-27T18:42:14.668Z,14.53
2019-03-27T18:44:46.433Z,11.57
2019-03-27T18:47:18.674Z,15.87
2019-03-27T18:50:03.342Z,12.87
2019-03-27T18:53:02.521Z,9.87
2019-03-27T18:59:38.735Z,11.73
2019-03-27T19:02:20.784Z,11.70
2019-03-27T19:04:53.801Z,17.33
2019-03-27T19:07:25.873Z,10.00
2019-03-27T19:09:57.703Z,11.83
2019-03-27T19:12:30.451Z,14.07
2019-03-27T19:15:02.244Z,11.90
2019-03-27T19:17:33.829Z,15.23
2019-03-27T19:20:05.879Z,12.97
2019-03-27T19:22:37.804Z,12.07
2019-03-27T19:25:09.675Z,14.97
2019-03-27T19:27:41.292Z,10.70
2019-03-27T19:30:14.789Z,9.33
2019-03-27T19:32:46.372Z,12.87
2019-03-27T19:35:18.017Z,14.10
2019-03-27T19:38:10.470Z,14.63
2019-03-27T19:40:44.127Z,16.00
2019-03-27T19:43:16.544Z,15.17
2019-03-27T19:45:48.330Z,15.33
2019-03-27T19:48:19.919Z,12.70
2019-03-27T19:50:52.811Z,15.73
2019-03-27T19:53:24.396Z,20.40
2019-03-27T19:56:24.097Z,14.93
2019-03-27T19:59:01.759Z,17.70
2019-03-27T20:01:56.722Z,21.23
2019-03-27T20:13:40.537Z,15.43
2019-03-27T20:16:12.065Z,20.37
2019-03-27T20:18:43.729Z,20.87
2019-03-27T20:21:15.380Z,19.87
2019-03-27T20:23:46.949Z,21.60
2019-03-27T20:26:18.515Z,17.57
2019-03-27T20:28:50.044Z,21.90
2019-03-27T20:31:21.643Z,23.20
2019-03-27T20:33:53.381Z,18.73
2019-03-27T20:36:26.589Z,18.27
2019-03-27T20:38:58.218Z,21.43
2019-03-27T20:41:29.770Z,21.13
2019-03-27T20:44:01.430Z,19.70
2019-03-27T20:46:32.962Z,22.37
2019-03-27T20:49:04.832Z,24.93
2019-03-27T20:51:36.559Z,22.17
2019-03-27T20:54:09.038Z,19.17
2019-03-27T20:56:40.871Z,19.97
2019-03-27T20:59:18.769Z,20.10
2019-03-27T21:01:51.389Z,20.30
2019-03-27T21:04:29.986Z,18.67
2019-03-27T21:07:01.857Z,21.53
2019-03-27T21:09:34.065Z,22.40
2019-03-27T21:12:06.165Z,18.50
2019-03-27T21:14:38.177Z,22.17
2019-03-27T21:17:09.827Z,18.73
2019-03-27T21:19:41.678Z,23.13
2019-03-27T21:22:13.325Z,19.43
2019-03-27T21:24:45.211Z,18.43
2019-03-27T21:27:17.093Z,20.97
2019-03-27T21:29:49.072Z,19.13
2019-03-27T21:32:22.102Z,21.93
2019-03-27T21:34:53.998Z,18.20
2019-03-27T21:37:27.011Z,21.27
2019-03-27T21:39:59.003Z,18.43
2019-03-27T21:42:30.908Z,20.07
2019-03-27T21:45:03.721Z,18.83
2019-03-27T21:47:35.278Z,17.53
2019-03-27T21:50:07.497Z,18.73
2019-03-27T21:52:39.085Z,19.37
2019-03-27T21:55:22.088Z,21.57
2019-03-27T21:57:44.079Z,25.03
2019-03-27T22:00:19.337Z,19.73
2019-03-27T22:02:50.941Z,25.13
2019-03-27T22:05:22.518Z,23.37
2019-03-27T22:07:54.047Z,21.10
2019-03-27T22:10:34.494Z,23.57
2019-03-27T22:13:06.530Z,22.77
2019-03-27T22:15:39.871Z,22.53
2019-03-27T22:18:15.230Z,21.03
2019-03-27T22:20:47.250Z,24.77
2019-03-27T22:23:18.817Z,22.40
2019-03-27T22:25:51.974Z,24.70
2019-03-27T22:28:23.915Z,20.53
2019-03-27T22:30:56.012Z,24.17
2019-03-27T22:33:27.845Z,21.47
2019-03-27T22:36:00.281Z,23.50
2019-03-27T22:38:32.404Z,24.03
2019-03-27T22:41:04.253Z,22.13
2019-03-27T22:43:37.633Z,25.80
2019-03-27T22:46:09.434Z,24.93
2019-03-27T22:48:41.468Z,25.27
2019-03-27T22:51:14.158Z,21.47
2019-03-27T22:53:48.003Z,28.30
2019-03-27T22:56:22.982Z,23.07
2019-03-27T22:58:54.554Z,22.40
2019-03-27T23:01:32.801Z,24.07
2019-03-27T23:04:04.396Z,26.13
2019-03-27T23:06:37.706Z,26.50
2019-03-27T23:09:10.051Z,25.57
2019-03-27T23:11:41.712Z,26.03
2019-03-27T23:14:13.647Z,24.47
2019-03-27T23:16:45.244Z,24.63
2019-03-27T23:19:18.094Z,24.60
2019-03-27T23:21:49.728Z,26.27
2019-03-27T23:24:21.408Z,26.23
2019-03-27T23:26:54.478Z,28.90
2019-03-27T23:29:26.111Z,28.20
2019-03-27T23:31:57.614Z,26.30
2019-03-27T23:34:29.218Z,29.07
2019-03-27T23:37:00.865Z,26.87
2019-03-27T23:39:32.481Z,29.00
2019-03-27T23:42:04.071Z,26.30
2019-03-27T23:44:35.622Z,26.33
2019-03-27T23:47:07.612Z,27.63
2019-03-27T23:49:39.181Z,29.03
2019-03-27T23:52:11.034Z,30.93
2019-03-27T23:54:42.593Z,28.17
2019-03-27T23:57:14.513Z,28.67
2019-03-27T23:59:46.088Z,27.57
